Time;durP1;ratioP1;P1;durP2;ratioP2;P2;SDS_P1;SDS_P2;PMS_P1;PMS_P2;Temp;Humidity;BMP_temperature;BMP_pressure;BME280_temperature;BME280_humidity;BME280_pressure;Samples;Min_cycle;Max_cycle;Signal;HPM_P1;HPM_P2
2021/11/23 00:01:38;;;;;;;0.47;0.47;;;;;;;;;;4978327;28;20042;-69
2021/11/23 00:04:04;;;;;;;0.65;0.65;;;;;;;;;;4975598;28;20023;-69
2021/11/23 00:06:34;;;;;;;4.30;0.52;;;;;;;;;;4970166;28;20026;-69
2021/11/23 00:09:00;;;;;;;0.20;0.20;;;;;;;;;;4982459;28;20026;-70
2021/11/23 00:11:26;;;;;;;0.03;0.03;;;;;;;;;;4972942;28;20034;-69
2021/11/23 00:13:52;;;;;;;0.30;0.30;;;;;;;;;;4970886;28;20019;-69
2021/11/23 00:16:18;;;;;;;0.10;0.10;;;;;;;;;;4974129;28;20045;-69
2021/11/23 00:18:45;;;;;;;0.40;0.40;;;;;;;;;;4984967;28;20062;-69
2021/11/23 00:21:10;;;;;;;0.08;0.08;;;;;;;;;;4988938;28;20031;-69
2021/11/23 00:23:36;;;;;;;0.43;0.35;;;;;;;;;;4967131;28;20485;-69
2021/11/23 00:26:02;;;;;;;0.32;0.32;;;;;;;;;;4972557;28;20049;-70
2021/11/23 00:28:29;;;;;;;0.70;0.65;;;;;;;;;;4975886;28;20050;-69
2021/11/23 00:30:55;;;;;;;0.13;0.13;;;;;;;;;;4986562;28;20073;-69
2021/11/23 00:33:21;;;;;;;0.95;0.50;;;;;;;;;;4974292;28;20117;-69
2021/11/23 00:35:47;;;;;;;0.35;0.35;;;;;;;;;;4986129;28;20109;-68
2021/11/23 00:38:13;;;;;;;0.30;0.22;;;;;;;;;;4979575;28;20655;-69
2021/11/23 00:40:39;;;;;;;0.30;0.30;;;;;;;;;;4977440;28;20030;-69
2021/11/23 00:43:05;;;;;;;0.68;0.68;;;;;;;;;;4980158;28;20035;-69
2021/11/23 00:45:35;;;;;;;0.10;0.10;;;;;;;;;;4975021;28;20532;-69
2021/11/23 00:48:01;;;;;;;0.38;0.38;;;;;;;;;;4973148;28;20049;-70
2021/11/23 00:50:28;;;;;;;0.32;0.32;;;;;;;;;;4982791;28;20159;-69
2021/11/23 00:52:54;;;;;;;0.30;0.30;;;;;;;;;;4977146;28;20038;-70
2021/11/23 00:55:20;;;;;;;0.63;0.20;;;;;;;;;;4975038;28;20034;-69
2021/11/23 00:57:46;;;;;;;0.25;0.25;;;;;;;;;;4986297;28;20050;-69
2021/11/23 01:00:12;;;;;;;1.65;0.80;;;;;;;;;;4984826;28;20243;-69
2021/11/23 01:02:38;;;;;;;1.17;1.02;;;;;;;;;;4973267;28;20495;-70
2021/11/23 01:05:04;;;;;;;0.85;0.55;;;;;;;;;;4981832;28;20031;-70
2021/11/23 01:07:30;;;;;;;0.00;0.00;;;;;;;;;;4980237;28;20053;-70
2021/11/23 01:09:56;;;;;;;0.95;0.68;;;;;;;;;;4972163;28;20051;-69
2021/11/23 01:12:23;;;;;;;1.27;0.82;;;;;;;;;;4975956;28;20167;-70
2021/11/23 01:14:49;;;;;;;0.80;0.52;;;;;;;;;;4974515;28;20034;-69
2021/11/23 01:17:15;;;;;;;0.75;0.68;;;;;;;;;;4982488;28;20034;-69
2021/11/23 01:19:42;;;;;;;0.32;0.32;;;;;;;;;;4986476;28;20034;-68
2021/11/23 01:22:07;;;;;;;0.13;0.13;;;;;;;;;;4986004;28;20439;-69
2021/11/23 01:24:33;;;;;;;0.00;0.00;;;;;;;;;;4972859;28;20031;-69
2021/11/23 01:26:59;;;;;;;0.10;0.10;;;;;;;;;;4979793;28;20426;-69
2021/11/23 01:29:26;;;;;;;0.08;0.08;;;;;;;;;;4980808;28;20035;-69
2021/11/23 01:31:52;;;;;;;0.10;0.10;;;;;;;;;;4978142;28;20555;-69
2021/11/23 01:34:19;;;;;;;0.30;0.30;;;;;;;;;;4982916;28;20050;-68
2021/11/23 01:36:49;;;;;;;0.10;0.10;;;;;;;;;;4971472;28;20175;-69
2021/11/23 01:39:15;;;;;;;0.20;0.20;;;;;;;;;;4980540;28;20039;-69
2021/11/23 01:41:42;;;;;;;0.00;0.00;;;;;;;;;;4986777;28;20759;-70
2021/11/23 01:44:07;;;;;;;0.30;0.28;;;;;;;;;;4991124;28;20033;-68
2021/11/23 01:46:34;;;;;;;1.55;0.60;;;;;;;;;;4976708;28;20030;-70
2021/11/23 01:49:00;;;;;;;0.10;0.10;;;;;;;;;;4985430;28;20464;-70
2021/11/23 01:51:26;;;;;;;0.90;0.65;;;;;;;;;;4979724;28;20048;-70
2021/11/23 01:53:51;;;;;;;0.20;0.20;;;;;;;;;;4991985;28;20034;-70
2021/11/23 01:56:17;;;;;;;0.65;0.38;;;;;;;;;;4975414;28;20023;-70
2021/11/23 01:58:43;;;;;;;0.45;0.45;;;;;;;;;;4984583;28;20062;-69
2021/11/23 02:01:09;;;;;;;0.55;0.55;;;;;;;;;;4984197;28;20824;-69
2021/11/23 02:03:36;;;;;;;0.32;0.32;;;;;;;;;;4973114;28;20030;-70
2021/11/23 02:06:02;;;;;;;0.85;0.65;;;;;;;;;;4987260;28;20039;-70
2021/11/23 02:08:28;;;;;;;0.20;0.20;;;;;;;;;;4972371;28;20037;-69
2021/11/23 02:10:54;;;;;;;0.10;0.10;;;;;;;;;;4966520;28;20501;-69
2021/11/23 02:13:20;;;;;;;0.10;0.10;;;;;;;;;;4973246;28;20030;-70
2021/11/23 02:15:46;;;;;;;0.57;0.57;;;;;;;;;;4983916;28;20474;-70
2021/11/23 02:18:16;;;;;;;0.65;0.28;;;;;;;;;;4976501;28;20437;-69
2021/11/23 02:20:43;;;;;;;0.40;0.40;;;;;;;;;;4968018;28;20045;-69
2021/11/23 02:23:09;;;;;;;0.20;0.20;;;;;;;;;;4984247;28;20026;-69
2021/11/23 02:25:35;;;;;;;0.10;0.10;;;;;;;;;;4987825;28;20531;-70
2021/11/23 02:28:01;;;;;;;0.30;0.30;;;;;;;;;;4978583;28;20437;-69
2021/11/23 02:30:27;;;;;;;0.65;0.47;;;;;;;;;;4984738;28;20035;-70
2021/11/23 02:32:52;;;;;;;0.85;0.73;;;;;;;;;;4984992;28;20038;-69
2021/11/23 02:35:20;;;;;;;0.10;0.10;;;;;;;;;;4988453;28;20101;-69
2021/11/23 02:37:48;;;;;;;0.10;0.10;;;;;;;;;;4978618;28;20436;-69
2021/11/23 02:40:14;;;;;;;0.10;0.10;;;;;;;;;;4983776;28;20568;-69
2021/11/23 02:42:40;;;;;;;0.08;0.08;;;;;;;;;;4985160;28;20485;-69
2021/11/23 02:45:07;;;;;;;0.10;0.10;;;;;;;;;;4984396;28;20528;-70
2021/11/23 02:47:34;;;;;;;1.25;1.02;;;;;;;;;;4975688;28;20026;-70
2021/11/23 02:50:00;;;;;;;0.20;0.20;;;;;;;;;;4986635;28;20439;-70
2021/11/23 02:52:29;;;;;;;0.10;0.10;;;;;;;;;;4985242;28;20037;-69
2021/11/23 02:54:56;;;;;;;1.13;0.45;;;;;;;;;;4987177;28;20035;-69
2021/11/23 02:57:23;;;;;;;0.57;0.57;;;;;;;;;;4977426;28;20022;-69
2021/11/23 02:59:49;;;;;;;0.70;0.68;;;;;;;;;;4991066;28;20053;-70
2021/11/23 03:02:16;;;;;;;3.13;1.20;;;;;;;;;;4988967;28;20030;-70
2021/11/23 03:04:42;;;;;;;0.38;0.20;;;;;;;;;;4970529;28;20044;-70
2021/11/23 03:07:12;;;;;;;0.10;0.10;;;;;;;;;;4983130;28;20113;-69
2021/11/23 03:09:39;;;;;;;0.22;0.22;;;;;;;;;;4970983;28;20125;-69
2021/11/23 03:12:05;;;;;;;0.28;0.28;;;;;;;;;;4974528;28;20050;-70
2021/11/23 03:14:31;;;;;;;4.43;0.65;;;;;;;;;;4980285;28;20535;-69
2021/11/23 03:16:57;;;;;;;0.35;0.35;;;;;;;;;;4981088;28;20030;-69
2021/11/23 03:19:22;;;;;;;0.25;0.25;;;;;;;;;;4980275;28;20496;-70
2021/11/23 03:21:49;;;;;;;0.80;0.80;;;;;;;;;;4978096;28;20038;-70
2021/11/23 03:24:15;;;;;;;0.08;0.08;;;;;;;;;;4969582;28;20038;-69
2021/11/23 03:26:41;;;;;;;0.45;0.45;;;;;;;;;;4973180;28;20389;-69
2021/11/23 03:29:07;;;;;;;1.45;0.95;;;;;;;;;;4990232;28;20535;-69
2021/11/23 03:31:33;;;;;;;0.45;0.40;;;;;;;;;;4982233;28;20058;-70
2021/11/23 03:33:59;;;;;;;0.28;0.28;;;;;;;;;;4979749;28;20101;-70
2021/11/23 03:36:25;;;;;;;1.80;1.65;;;;;;;;;;4986622;28;20056;-70
2021/11/23 03:38:51;;;;;;;0.40;0.40;;;;;;;;;;4980913;28;20026;-70
2021/11/23 03:41:17;;;;;;;0.20;0.20;;;;;;;;;;4983251;28;20031;-70
2021/11/23 03:43:43;;;;;;;0.30;0.30;;;;;;;;;;4979241;28;20050;-69
2021/11/23 03:46:08;;;;;;;0.17;0.17;;;;;;;;;;4986257;28;20422;-70
2021/11/23 03:48:34;;;;;;;0.10;0.10;;;;;;;;;;4973131;28;20031;-70
2021/11/23 03:51:00;;;;;;;0.10;0.10;;;;;;;;;;4981241;28;20045;-70
2021/11/23 03:53:26;;;;;;;1.08;0.25;;;;;;;;;;4988802;28;20481;-70
2021/11/23 03:55:52;;;;;;;2.15;0.85;;;;;;;;;;4978475;28;20146;-70
2021/11/23 03:58:18;;;;;;;0.10;0.10;;;;;;;;;;4972381;28;20078;-70
2021/11/23 04:00:44;;;;;;;0.10;0.10;;;;;;;;;;4972850;28;20445;-70
2021/11/23 04:03:10;;;;;;;0.63;0.60;;;;;;;;;;4978681;28;20035;-70
2021/11/23 04:05:36;;;;;;;0.15;0.15;;;;;;;;;;4972392;28;20037;-70
2021/11/23 04:08:02;;;;;;;0.08;0.08;;;;;;;;;;4967978;28;20038;-70
2021/11/23 04:10:28;;;;;;;1.63;1.38;;;;;;;;;;4971468;28;20039;-70
2021/11/23 04:12:54;;;;;;;0.10;0.10;;;;;;;;;;4970076;28;20504;-70
2021/11/23 04:15:20;;;;;;;0.40;0.40;;;;;;;;;;4975407;28;20488;-70
2021/11/23 04:17:48;;;;;;;0.25;0.25;;;;;;;;;;4981633;28;20100;-70
2021/11/23 04:20:14;;;;;;;1.77;1.00;;;;;;;;;;4978967;28;20480;-71
2021/11/23 04:22:40;;;;;;;0.10;0.10;;;;;;;;;;4975590;28;20035;-70
2021/11/23 04:25:07;;;;;;;0.32;0.30;;;;;;;;;;4973905;28;20038;-69
2021/11/23 04:27:33;;;;;;;0.75;0.75;;;;;;;;;;4983188;28;20455;-70
2021/11/23 04:29:59;;;;;;;0.20;0.20;;;;;;;;;;4972697;28;20484;-70
2021/11/23 04:32:25;;;;;;;4.60;0.70;;;;;;;;;;4981873;28;20069;-70
2021/11/23 04:34:50;;;;;;;0.10;0.10;;;;;;;;;;4979180;28;20026;-70
2021/11/23 04:37:16;;;;;;;1.35;1.10;;;;;;;;;;4972224;28;20383;-71
2021/11/23 04:39:43;;;;;;;0.35;0.35;;;;;;;;;;4980044;28;20034;-70
2021/11/23 04:42:09;;;;;;;0.20;0.20;;;;;;;;;;4979587;28;20041;-70
2021/11/23 04:44:35;;;;;;;0.40;0.40;;;;;;;;;;4977242;28;20109;-70
2021/11/23 04:47:01;;;;;;;0.47;0.47;;;;;;;;;;4969243;28;20585;-70
2021/11/23 04:49:27;;;;;;;0.20;0.20;;;;;;;;;;4977395;28;20397;-70
2021/11/23 04:51:52;;;;;;;0.20;0.20;;;;;;;;;;4973713;28;20371;-69
2021/11/23 04:54:18;;;;;;;0.52;0.52;;;;;;;;;;4980879;28;20034;-70
2021/11/23 04:56:44;;;;;;;0.10;0.10;;;;;;;;;;4968934;28;20034;-70
2021/11/23 04:59:10;;;;;;;0.15;0.15;;;;;;;;;;4973399;28;20030;-70
2021/11/23 05:01:38;;;;;;;0.13;0.13;;;;;;;;;;4974644;28;20030;-73
2021/11/23 05:04:04;;;;;;;0.43;0.43;;;;;;;;;;4977458;28;20038;-72
2021/11/23 05:06:30;;;;;;;0.55;0.55;;;;;;;;;;4983279;28;20026;-71
2021/11/23 05:08:56;;;;;;;0.55;0.55;;;;;;;;;;4982381;28;20026;-71
2021/11/23 05:11:26;;;;;;;3.63;2.30;;;;;;;;;;4965599;28;20150;-70
2021/11/23 05:13:55;;;;;;;0.30;0.30;;;;;;;;;;4972019;28;20026;-70
2021/11/23 05:16:21;;;;;;;0.90;0.90;;;;;;;;;;4961469;28;20185;-70
2021/11/23 05:18:48;;;;;;;0.08;0.08;;;;;;;;;;4969973;28;20553;-71
2021/11/23 05:21:13;;;;;;;0.15;0.15;;;;;;;;;;4968966;28;20053;-70
2021/11/23 05:23:40;;;;;;;0.30;0.30;;;;;;;;;;4969917;28;20612;-69
2021/11/23 05:26:06;;;;;;;0.30;0.30;;;;;;;;;;4962907;28;20037;-69
2021/11/23 05:28:32;;;;;;;1.05;0.95;;;;;;;;;;4968088;28;20027;-70
2021/11/23 05:30:58;;;;;;;0.30;0.30;;;;;;;;;;4967396;28;20015;-69
2021/11/23 05:33:30;;;;;;;0.20;0.20;;;;;;;;;;4967696;28;20443;-68
2021/11/23 05:35:56;;;;;;;0.13;0.13;;;;;;;;;;4970984;28;20085;-70
2021/11/23 05:38:22;;;;;;;2.15;1.65;;;;;;;;;;4972153;28;20110;-70
2021/11/23 05:40:48;;;;;;;0.17;0.17;;;;;;;;;;4971934;28;20469;-70
2021/11/23 05:43:15;;;;;;;0.43;0.43;;;;;;;;;;4976067;28;20019;-69
2021/11/23 05:45:41;;;;;;;2.83;0.93;;;;;;;;;;4983041;28;20069;-70
2021/11/23 05:48:07;;;;;;;0.40;0.40;;;;;;;;;;4982933;28;20045;-70
2021/11/23 05:50:33;;;;;;;0.22;0.22;;;;;;;;;;4976044;28;20026;-70
2021/11/23 05:53:01;;;;;;;0.40;0.40;;;;;;;;;;4974698;28;20153;-69
2021/11/23 05:55:27;;;;;;;0.20;0.20;;;;;;;;;;4975935;28;20252;-69
2021/11/23 05:57:53;;;;;;;0.80;0.80;;;;;;;;;;4973749;28;20479;-69
2021/11/23 06:00:19;;;;;;;0.17;0.17;;;;;;;;;;4977976;28;20090;-72
2021/11/23 06:02:45;;;;;;;0.20;0.20;;;;;;;;;;4975965;28;20050;-70
2021/11/23 06:05:11;;;;;;;1.08;0.63;;;;;;;;;;4978171;28;20031;-70
2021/11/23 06:07:37;;;;;;;0.88;0.70;;;;;;;;;;4975449;28;20389;-70
2021/11/23 06:10:03;;;;;;;0.50;0.45;;;;;;;;;;4970293;28;20408;-70
2021/11/23 06:12:31;;;;;;;1.40;1.02;;;;;;;;;;4976370;28;20038;-70
2021/11/23 06:14:58;;;;;;;0.65;0.57;;;;;;;;;;4976583;28;20034;-70
2021/11/23 06:17:26;;;;;;;0.85;0.82;;;;;;;;;;4974721;28;20039;-70
2021/11/23 06:19:53;;;;;;;0.50;0.50;;;;;;;;;;4974877;28;20026;-70
2021/11/23 06:22:19;;;;;;;0.50;0.35;;;;;;;;;;4985484;28;20101;-70
2021/11/23 06:24:45;;;;;;;0.35;0.35;;;;;;;;;;4977582;28;20123;-70
2021/11/23 06:27:11;;;;;;;0.50;0.50;;;;;;;;;;4985917;28;20050;-69
2021/11/23 06:29:37;;;;;;;0.52;0.52;;;;;;;;;;4974486;28;20118;-70
2021/11/23 06:32:03;;;;;;;1.27;0.77;;;;;;;;;;4984614;28;20122;-70
2021/11/23 06:34:29;;;;;;;0.98;0.98;;;;;;;;;;4984278;28;20113;-69
2021/11/23 06:36:57;;;;;;;0.55;0.55;;;;;;;;;;4987267;28;20109;-69
2021/11/23 06:39:23;;;;;;;0.55;0.55;;;;;;;;;;4970664;28;20155;-69
2021/11/23 06:41:49;;;;;;;0.68;0.68;;;;;;;;;;4975844;28;20062;-70
2021/11/23 06:44:15;;;;;;;0.30;0.30;;;;;;;;;;4981323;28;20033;-70
2021/11/23 06:46:41;;;;;;;0.50;0.50;;;;;;;;;;4989777;28;20089;-70
2021/11/23 06:49:07;;;;;;;0.63;0.63;;;;;;;;;;4981431;28;20118;-70
2021/11/23 06:51:33;;;;;;;0.20;0.20;;;;;;;;;;4984399;28;20030;-70
2021/11/23 06:53:59;;;;;;;0.38;0.38;;;;;;;;;;4989609;28;20227;-70
2021/11/23 06:56:25;;;;;;;1.35;0.98;;;;;;;;;;4989602;28;20041;-70
2021/11/23 06:58:51;;;;;;;0.20;0.20;;;;;;;;;;4987453;28;20073;-69
2021/11/23 07:01:17;;;;;;;0.98;0.98;;;;;;;;;;4989975;28;20081;-70
2021/11/23 07:03:43;;;;;;;0.35;0.35;;;;;;;;;;4981515;28;20026;-70
2021/11/23 07:06:09;;;;;;;0.68;0.68;;;;;;;;;;4989974;28;20034;-69
2021/11/23 07:08:36;;;;;;;0.95;0.95;;;;;;;;;;4989427;28;20026;-70
2021/11/23 07:11:02;;;;;;;0.25;0.25;;;;;;;;;;4977923;28;20474;-71
2021/11/23 07:13:28;;;;;;;0.10;0.10;;;;;;;;;;4985488;28;20038;-70
2021/11/23 07:15:54;;;;;;;0.43;0.43;;;;;;;;;;4988514;28;20036;-69
2021/11/23 07:18:20;;;;;;;0.10;0.10;;;;;;;;;;4984438;28;20109;-70
2021/11/23 07:20:46;;;;;;;1.38;0.82;;;;;;;;;;4989738;28;20030;-70
2021/11/23 07:23:13;;;;;;;0.25;0.25;;;;;;;;;;4977511;28;20474;-70
2021/11/23 07:25:38;;;;;;;0.63;0.63;;;;;;;;;;4989930;28;20050;-70
2021/11/23 07:28:04;;;;;;;1.45;0.57;;;;;;;;;;4976664;28;20026;-70
2021/11/23 07:30:30;;;;;;;0.98;0.77;;;;;;;;;;4989260;28;20022;-70
2021/11/23 07:32:57;;;;;;;3.90;1.25;;;;;;;;;;4989484;28;20484;-70
2021/11/23 07:35:23;;;;;;;0.75;0.73;;;;;;;;;;4989606;28;20030;-70
2021/11/23 07:37:49;;;;;;;0.30;0.30;;;;;;;;;;4981514;28;20034;-70
2021/11/23 07:40:15;;;;;;;0.85;0.77;;;;;;;;;;4981762;28;20394;-70
2021/11/23 07:42:41;;;;;;;10.73;1.63;;;;;;;;;;4984016;28;20027;-70
2021/11/23 07:45:07;;;;;;;2.38;1.02;;;;;;;;;;4989560;28;20568;-70
2021/11/23 07:47:33;;;;;;;0.32;0.32;;;;;;;;;;4988982;28;20113;-70
2021/11/23 07:49:59;;;;;;;1.25;1.15;;;;;;;;;;4977394;28;20118;-70
2021/11/23 07:52:25;;;;;;;0.82;0.70;;;;;;;;;;4988956;28;20042;-70
2021/11/23 07:54:51;;;;;;;0.25;0.25;;;;;;;;;;4989428;28;20030;-70
2021/11/23 07:57:17;;;;;;;0.85;0.85;;;;;;;;;;4988443;28;20026;-70
2021/11/23 07:59:43;;;;;;;0.70;0.70;;;;;;;;;;4981004;28;20023;-70
2021/11/23 08:02:09;;;;;;;0.60;0.60;;;;;;;;;;4989046;28;20101;-69
2021/11/23 08:04:35;;;;;;;0.73;0.57;;;;;;;;;;4976487;28;20533;-70
2021/11/23 08:07:00;;;;;;;5.40;0.90;;;;;;;;;;4988999;28;20033;-70
2021/11/23 08:09:27;;;;;;;0.70;0.70;;;;;;;;;;4980774;28;20133;-70
2021/11/23 08:11:52;;;;;;;1.17;0.60;;;;;;;;;;4972204;28;20071;-70
2021/11/23 08:14:20;;;;;;;0.65;0.65;;;;;;;;;;4969529;28;20058;-70
2021/11/23 08:16:46;;;;;;;0.85;0.85;;;;;;;;;;4975022;28;20034;-70
2021/11/23 08:19:12;;;;;;;1.35;0.98;;;;;;;;;;4977579;28;20057;-70
2021/11/23 08:21:38;;;;;;;0.73;0.73;;;;;;;;;;4988625;28;20023;-70
2021/11/23 08:24:04;;;;;;;1.10;1.02;;;;;;;;;;4978024;28;20416;-70
2021/11/23 08:26:38;;;;;;;0.47;0.47;;;;;;;;;;4988403;28;20078;-70
2021/11/23 08:29:04;;;;;;;0.82;0.82;;;;;;;;;;4984268;28;20030;-70
2021/11/23 08:31:29;;;;;;;0.85;0.85;;;;;;;;;;4988459;28;20022;-70
2021/11/23 08:33:56;;;;;;;0.47;0.47;;;;;;;;;;4980779;28;20531;-70
2021/11/23 08:36:22;;;;;;;0.52;0.52;;;;;;;;;;4971174;28;20489;-69
2021/11/23 08:38:48;;;;;;;0.45;0.45;;;;;;;;;;4980133;28;20034;-69
2021/11/23 08:41:14;;;;;;;0.90;0.90;;;;;;;;;;4971349;28;20073;-70
2021/11/23 08:43:40;;;;;;;0.40;0.40;;;;;;;;;;4968522;28;20019;-69
2021/11/23 08:46:06;;;;;;;0.88;0.82;;;;;;;;;;4971525;28;20027;-71
2021/11/23 08:48:34;;;;;;;0.65;0.65;;;;;;;;;;4978109;28;20113;-71
2021/11/23 08:51:00;;;;;;;1.45;1.25;;;;;;;;;;4974785;28;20504;-71
2021/11/23 08:53:26;;;;;;;1.55;1.45;;;;;;;;;;4984688;28;20038;-71
2021/11/23 08:55:52;;;;;;;0.60;0.60;;;;;;;;;;4976488;28;20042;-71
2021/11/23 08:58:18;;;;;;;3.30;1.42;;;;;;;;;;4986406;28;20058;-70
2021/11/23 09:00:44;;;;;;;0.38;0.35;;;;;;;;;;4978497;28;20080;-71
2021/11/23 09:03:10;;;;;;;1.52;1.42;;;;;;;;;;4979534;28;20027;-71
2021/11/23 09:05:37;;;;;;;1.08;1.08;;;;;;;;;;4973698;28;20026;-71
2021/11/23 09:08:03;;;;;;;0.57;0.57;;;;;;;;;;4978965;28;20105;-71
2021/11/23 09:10:31;;;;;;;4.95;2.17;;;;;;;;;;4974810;28;20050;-70
2021/11/23 09:12:58;;;;;;;1.38;1.30;;;;;;;;;;4975578;28;20019;-71
2021/11/23 09:15:25;;;;;;;0.25;0.17;;;;;;;;;;4974171;28;20038;-71
2021/11/23 09:17:51;;;;;;;1.23;1.20;;;;;;;;;;4975939;28;20195;-71
2021/11/23 09:20:18;;;;;;;27.85;1.38;;;;;;;;;;4974103;28;20090;-71
2021/11/23 09:22:44;;;;;;;0.20;0.20;;;;;;;;;;4974658;28;20488;-71
2021/11/23 09:25:11;;;;;;;0.43;0.43;;;;;;;;;;4974677;28;20026;-71
2021/11/23 09:27:38;;;;;;;0.38;0.38;;;;;;;;;;4972666;28;20358;-71
2021/11/23 09:30:05;;;;;;;0.85;0.85;;;;;;;;;;4979868;28;20061;-71
2021/11/23 09:32:31;;;;;;;0.05;0.05;;;;;;;;;;4972201;28;20034;-71
2021/11/23 09:34:57;;;;;;;0.38;0.38;;;;;;;;;;4975986;28;20034;-71
2021/11/23 09:37:23;;;;;;;1.77;1.25;;;;;;;;;;4974057;28;20114;-71
2021/11/23 09:39:49;;;;;;;0.00;0.00;;;;;;;;;;4974664;28;20209;-71
2021/11/23 09:42:16;;;;;;;0.32;0.28;;;;;;;;;;4978839;28;20034;-71
2021/11/23 09:44:44;;;;;;;0.15;0.15;;;;;;;;;;4976347;28;20117;-71
2021/11/23 09:47:10;;;;;;;0.32;0.32;;;;;;;;;;4972948;28;20053;-70
2021/11/23 09:49:36;;;;;;;0.20;0.20;;;;;;;;;;4977179;28;20117;-71
2021/11/23 09:52:02;;;;;;;0.55;0.55;;;;;;;;;;4975158;28;20455;-71
2021/11/23 09:54:28;;;;;;;0.45;0.40;;;;;;;;;;4974977;28;20048;-70
2021/11/23 09:56:54;;;;;;;1.08;0.95;;;;;;;;;;4974339;28;20022;-70
2021/11/23 09:59:20;;;;;;;0.10;0.10;;;;;;;;;;4970808;28;20110;-70
2021/11/23 10:01:56;;;;;;;0.50;0.50;;;;;;;;;;4983732;28;20476;-71
2021/11/23 10:04:24;;;;;;;0.60;0.50;;;;;;;;;;4978923;28;20093;-71
2021/11/23 10:07:00;;;;;;;0.80;0.55;;;;;;;;;;4975865;28;20077;-70
2021/11/23 10:09:32;;;;;;;0.00;0.00;;;;;;;;;;4961207;28;20493;-70
2021/11/23 10:12:11;;;;;;;0.88;0.88;;;;;;;;;;4973369;28;20093;-71
2021/11/23 10:14:37;;;;;;;10.80;1.88;;;;;;;;;;4973186;28;20118;-71
2021/11/23 10:17:04;;;;;;;2.63;0.57;;;;;;;;;;4974990;28;20445;-70
2021/11/23 10:19:37;;;;;;;0.43;0.43;;;;;;;;;;4990732;28;20043;-70
2021/11/23 10:22:04;;;;;;;1.27;1.17;;;;;;;;;;4982694;28;20027;-70
2021/11/23 10:24:36;;;;;;;0.82;0.82;;;;;;;;;;4972628;28;20444;-70
2021/11/23 10:27:18;;;;;;;0.52;0.52;;;;;;;;;;4989595;28;20038;-71
2021/11/23 10:29:50;;;;;;;9.82;3.25;;;;;;;;;;4976806;28;20030;-71
2021/11/23 10:32:16;;;;;;;0.50;0.50;;;;;;;;;;4973032;28;20039;-70
2021/11/23 10:34:44;;;;;;;3.90;0.73;;;;;;;;;;4974604;28;20034;-70
2021/11/23 10:37:26;;;;;;;0.30;0.30;;;;;;;;;;4986243;28;20500;-71
2021/11/23 10:39:52;;;;;;;0.30;0.30;;;;;;;;;;4985971;28;20049;-71
2021/11/23 10:42:18;;;;;;;3.90;1.55;;;;;;;;;;4976370;28;20363;-70
2021/11/23 10:44:52;;;;;;;0.20;0.20;;;;;;;;;;4974082;28;20026;-70
2021/11/23 10:47:19;;;;;;;0.22;0.22;;;;;;;;;;4966580;28;20129;-70
2021/11/23 10:49:46;;;;;;;0.80;0.77;;;;;;;;;;4977736;28;20097;-70
2021/11/23 10:52:25;;;;;;;0.13;0.13;;;;;;;;;;4990552;28;20227;-70
2021/11/23 10:54:51;;;;;;;0.98;0.55;;;;;;;;;;4988537;28;20037;-70
2021/11/23 10:57:17;;;;;;;0.55;0.52;;;;;;;;;;4976805;28;20031;-70
2021/11/23 10:59:43;;;;;;;1.35;1.25;;;;;;;;;;4972649;28;20031;-70
2021/11/23 11:02:09;;;;;;;0.08;0.08;;;;;;;;;;4973050;28;20081;-70
2021/11/23 11:04:36;;;;;;;0.45;0.45;;;;;;;;;;4981042;28;20037;-70
2021/11/23 11:07:03;;;;;;;0.08;0.08;;;;;;;;;;4978094;28;20067;-70
2021/11/23 11:09:30;;;;;;;0.17;0.17;;;;;;;;;;4970086;28;20039;-70
2021/11/23 11:11:56;;;;;;;0.82;0.82;;;;;;;;;;4966042;28;20034;-70
2021/11/23 11:14:22;;;;;;;0.20;0.20;;;;;;;;;;4970714;28;20057;-71
2021/11/23 11:16:48;;;;;;;1.95;1.48;;;;;;;;;;4975886;28;20489;-71
2021/11/23 11:19:15;;;;;;;0.68;0.68;;;;;;;;;;4986328;28;20251;-71
2021/11/23 11:21:41;;;;;;;1.55;1.30;;;;;;;;;;4980113;28;20053;-71
2021/11/23 11:24:22;;;;;;;0.70;0.52;;;;;;;;;;4989922;28;20030;-72
2021/11/23 11:26:53;;;;;;;1.75;0.80;;;;;;;;;;4989873;28;20034;-71
2021/11/23 11:29:29;;;;;;;0.52;0.52;;;;;;;;;;4989322;28;20604;-71
2021/11/23 11:31:55;;;;;;;2.00;1.35;;;;;;;;;;4988674;28;20042;-72
2021/11/23 11:34:22;;;;;;;0.45;0.43;;;;;;;;;;4979905;28;20173;-71
2021/11/23 11:36:48;;;;;;;3.70;1.92;;;;;;;;;;4974422;28;20065;-71
2021/11/23 11:39:33;;;;;;;0.85;0.85;;;;;;;;;;4982978;28;20113;-71
2021/11/23 11:41:59;;;;;;;0.77;0.47;;;;;;;;;;4984203;28;20026;-71
2021/11/23 11:44:35;;;;;;;0.52;0.52;;;;;;;;;;4962811;28;20072;-71
2021/11/23 11:47:04;;;;;;;0.55;0.55;;;;;;;;;;4982841;28;20435;-72
2021/11/23 11:49:51;;;;;;;0.30;0.30;;;;;;;;;;4989138;28;20026;-72
2021/11/23 11:52:18;;;;;;;0.30;0.30;;;;;;;;;;4975871;28;20035;-71
2021/11/23 11:54:45;;;;;;;0.75;0.60;;;;;;;;;;4973051;28;20019;-71
2021/11/23 11:57:30;;;;;;;0.52;0.52;;;;;;;;;;4977223;28;20035;-71
2021/11/23 12:00:16;;;;;;;3.15;0.57;;;;;;;;;;4989098;28;20504;-71
2021/11/23 12:02:42;;;;;;;0.45;0.45;;;;;;;;;;4985803;28;20034;-71
2021/11/23 12:05:08;;;;;;;0.30;0.30;;;;;;;;;;4982413;28;20069;-71
2021/11/23 12:07:38;;;;;;;2.35;1.38;;;;;;;;;;4989193;28;20030;-72
2021/11/23 12:10:19;;;;;;;0.93;0.28;;;;;;;;;;4975989;28;20061;-72
2021/11/23 12:12:45;;;;;;;1.55;1.45;;;;;;;;;;4978296;28;20033;-71
2021/11/23 12:15:15;;;;;;;1.65;1.17;;;;;;;;;;4989042;28;20388;-71
2021/11/23 12:17:45;;;;;;;0.28;0.28;;;;;;;;;;4973414;28;20043;-71
2021/11/23 12:20:15;;;;;;;0.32;0.32;;;;;;;;;;4985406;28;20457;-71
2021/11/23 12:22:42;;;;;;;0.23;0.23;;;;;;;;;;4988882;28;20473;-71
2021/11/23 12:25:12;;;;;;;0.57;0.52;;;;;;;;;;4988925;28;20269;-71
2021/11/23 12:27:38;;;;;;;1.70;1.20;;;;;;;;;;4983543;28;20035;-71
2021/11/23 12:30:05;;;;;;;0.20;0.20;;;;;;;;;;4984714;28;20068;-71
2021/11/23 12:32:33;;;;;;;0.40;0.40;;;;;;;;;;4988440;28;20045;-71
2021/11/23 12:34:59;;;;;;;0.73;0.73;;;;;;;;;;4988819;28;20428;-71
2021/11/23 12:37:35;;;;;;;3.47;2.33;;;;;;;;;;4988670;28;20030;-71
2021/11/23 12:40:16;;;;;;;0.22;0.22;;;;;;;;;;4975407;28;20158;-71
2021/11/23 12:42:51;;;;;;;1.10;0.97;;;;;;;;;;4990278;28;20034;-71
2021/11/23 12:45:18;;;;;;;0.30;0.30;;;;;;;;;;4992750;28;20026;-71
2021/11/23 12:47:47;;;;;;;0.08;0.08;;;;;;;;;;4985623;28;20619;-71
2021/11/23 12:50:13;;;;;;;3.80;2.10;;;;;;;;;;4992603;28;20030;-71
2021/11/23 12:52:39;;;;;;;0.88;0.70;;;;;;;;;;4992658;28;20034;-71
2021/11/23 12:55:05;;;;;;;0.65;0.65;;;;;;;;;;4992895;28;20038;-71
2021/11/23 12:57:31;;;;;;;0.28;0.28;;;;;;;;;;4990555;28;20026;-71
2021/11/23 12:59:59;;;;;;;1.50;0.80;;;;;;;;;;4992510;28;20026;-71
2021/11/23 13:02:25;;;;;;;0.20;0.20;;;;;;;;;;4991956;28;20030;-71
2021/11/23 13:04:52;;;;;;;0.60;0.60;;;;;;;;;;4992512;28;20025;-71
2021/11/23 13:07:18;;;;;;;0.55;0.55;;;;;;;;;;4992211;28;20112;-71
2021/11/23 13:09:44;;;;;;;2.53;1.80;;;;;;;;;;4972311;28;20070;-71
2021/11/23 13:12:11;;;;;;;0.20;0.20;;;;;;;;;;4989204;28;20037;-71
2021/11/23 13:14:49;;;;;;;0.25;0.25;;;;;;;;;;4992394;28;20041;-71
2021/11/23 13:17:15;;;;;;;1.25;0.45;;;;;;;;;;4976591;28;20058;-72
2021/11/23 13:19:51;;;;;;;4.90;0.77;;;;;;;;;;4982698;28;20049;-72
2021/11/23 13:22:17;;;;;;;0.77;0.77;;;;;;;;;;4975086;28;20034;-70
2021/11/23 13:24:43;;;;;;;1.67;1.15;;;;;;;;;;4978501;28;20034;-71
2021/11/23 13:27:08;;;;;;;1.63;1.25;;;;;;;;;;4972026;28;20027;-70
2021/11/23 13:29:34;;;;;;;14.25;2.78;;;;;;;;;;4976406;28;20444;-70
2021/11/23 13:32:00;;;;;;;0.77;0.70;;;;;;;;;;4989346;28;20481;-71
2021/11/23 13:34:26;;;;;;;0.47;0.47;;;;;;;;;;4992288;28;20042;-70
2021/11/23 13:36:55;;;;;;;1.40;0.38;;;;;;;;;;4977264;28;20485;-71
2021/11/23 13:39:25;;;;;;;0.20;0.20;;;;;;;;;;4970991;28;20050;-71
2021/11/23 13:41:52;;;;;;;0.47;0.47;;;;;;;;;;4980502;28;20038;-71
2021/11/23 13:44:30;;;;;;;0.03;0.03;;;;;;;;;;4979863;28;20038;-71
2021/11/23 13:46:57;;;;;;;0.47;0.47;;;;;;;;;;4985684;28;20026;-71
2021/11/23 13:49:28;;;;;;;0.15;0.15;;;;;;;;;;4980378;28;20105;-74
2021/11/23 13:52:11;;;;;;;0.60;0.60;;;;;;;;;;4985994;28;20031;-71
2021/11/23 13:54:46;;;;;;;0.50;0.45;;;;;;;;;;4973576;28;20031;-72
2021/11/23 13:57:29;;;;;;;0.20;0.20;;;;;;;;;;4984844;28;20034;-72
2021/11/23 13:59:59;;;;;;;1.13;0.65;;;;;;;;;;4969737;28;20023;-71
2021/11/23 14:02:44;;;;;;;0.40;0.40;;;;;;;;;;4977972;28;20034;-71
2021/11/23 14:05:11;;;;;;;0.63;0.63;;;;;;;;;;4980152;28;20076;-71
2021/11/23 14:07:54;;;;;;;0.70;0.70;;;;;;;;;;4974127;28;20035;-72
2021/11/23 14:10:27;;;;;;;0.10;0.10;;;;;;;;;;4972307;28;20505;-70
2021/11/23 14:12:59;;;;;;;1.55;1.35;;;;;;;;;;4980192;28;20030;-70
2021/11/23 14:15:31;;;;;;;0.75;0.63;;;;;;;;;;4975685;28;20026;-71
2021/11/23 14:18:06;;;;;;;0.25;0.25;;;;;;;;;;4968782;28;20039;-76
2021/11/23 14:20:34;;;;;;;0.95;0.50;;;;;;;;;;4964859;28;20035;-72
2021/11/23 14:23:01;;;;;;;2.17;0.70;;;;;;;;;;4966563;28;20429;-73
2021/11/23 14:25:27;;;;;;;0.80;0.80;;;;;;;;;;4980587;28;20121;-75
2021/11/23 14:27:57;;;;;;;0.20;0.20;;;;;;;;;;4977378;28;20055;-71
2021/11/23 14:30:23;;;;;;;0.25;0.20;;;;;;;;;;4961759;28;20022;-71
2021/11/23 14:32:49;;;;;;;0.30;0.30;;;;;;;;;;4970289;28;20034;-72
2021/11/23 14:35:15;;;;;;;0.15;0.15;;;;;;;;;;4979413;28;20508;-73
2021/11/23 14:37:41;;;;;;;0.47;0.47;;;;;;;;;;4985346;28;20669;-69
2021/11/23 14:40:08;;;;;;;2.45;0.70;;;;;;;;;;4973775;28;20042;-71
2021/11/23 14:42:34;;;;;;;1.48;0.75;;;;;;;;;;4978054;28;20142;-71
2021/11/23 14:45:00;;;;;;;1.35;0.65;;;;;;;;;;4969267;28;20114;-75